createdAt,value
2018-06-29T00:01:57.534Z,9.80
2018-06-29T00:04:25.645Z,9.50
2018-06-29T00:06:53.917Z,9.20
2018-06-29T00:09:22.148Z,9.27
2018-06-29T00:11:50.279Z,9.53
2018-06-29T00:14:18.429Z,9.80
2018-06-29T00:16:46.717Z,10.37
2018-06-29T00:19:14.972Z,9.20
2018-06-29T00:21:43.067Z,9.00
2018-06-29T00:24:11.226Z,9.47
2018-06-29T00:26:39.468Z,9.60
2018-06-29T00:29:07.601Z,9.50
2018-06-29T00:31:35.826Z,8.07
2018-06-29T00:34:03.978Z,9.27
2018-06-29T00:36:32.090Z,8.80
2018-06-29T00:39:00.206Z,9.70
2018-06-29T00:41:28.367Z,9.20
2018-06-29T00:43:56.489Z,9.20
2018-06-29T00:46:24.597Z,8.97
2018-06-29T00:48:52.718Z,9.10
2018-06-29T00:51:20.831Z,9.70
2018-06-29T00:53:48.960Z,9.90
2018-06-29T00:56:17.074Z,9.87
2018-06-29T00:58:45.237Z,9.87
2018-06-29T01:01:13.349Z,10.07
2018-06-29T01:03:41.478Z,9.87
2018-06-29T01:06:09.590Z,9.50
2018-06-29T01:08:37.464Z,9.10
2018-06-29T01:11:05.581Z,9.87
2018-06-29T01:13:33.809Z,9.80
2018-06-29T01:16:01.934Z,9.23
2018-06-29T01:18:30.137Z,9.50
2018-06-29T01:20:58.261Z,9.60
2018-06-29T01:23:26.374Z,9.87
2018-06-29T01:25:54.493Z,9.47
2018-06-29T01:28:22.601Z,10.03
2018-06-29T01:30:50.724Z,10.47
2018-06-29T01:33:18.830Z,9.87
2018-06-29T01:35:46.950Z,10.40
2018-06-29T01:38:15.053Z,11.00
2018-06-29T01:40:43.200Z,10.73
2018-06-29T01:43:11.101Z,10.97
2018-06-29T01:45:39.329Z,11.50
2018-06-29T01:48:07.686Z,11.27
2018-06-29T01:50:35.858Z,10.53
2018-06-29T01:53:03.970Z,10.10
2018-06-29T01:55:32.098Z,10.73
2018-06-29T01:58:00.208Z,11.00
2018-06-29T02:00:28.394Z,10.80
2018-06-29T02:02:56.461Z,11.00
2018-06-29T02:05:24.590Z,11.37
2018-06-29T02:07:52.702Z,10.83
2018-06-29T02:10:20.832Z,11.77
2018-06-29T02:12:48.958Z,10.80
2018-06-29T02:15:17.082Z,11.50
2018-06-29T02:17:45.193Z,11.20
2018-06-29T02:20:13.396Z,11.00
2018-06-29T02:22:41.515Z,11.40
2018-06-29T02:25:09.693Z,11.03
2018-06-29T02:27:38.184Z,10.90
2018-06-29T02:30:06.643Z,8.93
2018-06-29T02:32:34.775Z,9.10
2018-06-29T02:35:02.895Z,10.27
2018-06-29T02:37:31.013Z,9.70
2018-06-29T02:39:59.121Z,9.80
2018-06-29T02:42:27.255Z,9.67
2018-06-29T02:44:55.626Z,9.20
2018-06-29T02:47:23.749Z,9.20
2018-06-29T02:49:52.672Z,9.57
2018-06-29T02:52:21.036Z,9.93
2018-06-29T02:54:49.141Z,10.27
2018-06-29T02:57:17.310Z,10.53
2018-06-29T02:59:45.430Z,10.70
2018-06-29T03:02:13.564Z,9.77
2018-06-29T03:04:41.767Z,11.67
2018-06-29T03:07:09.887Z,9.87
2018-06-29T03:09:38.008Z,10.90
2018-06-29T03:12:06.134Z,10.93
2018-06-29T03:14:34.269Z,10.60
2018-06-29T03:17:02.392Z,11.67
2018-06-29T03:19:30.516Z,10.80
2018-06-29T03:21:58.637Z,10.20
2018-06-29T03:24:26.859Z,11.80
2018-06-29T03:26:54.978Z,11.90
2018-06-29T03:29:22.857Z,12.30
2018-06-29T03:31:51.017Z,11.57
2018-06-29T03:34:18.901Z,12.60
2018-06-29T03:36:47.031Z,11.07
2018-06-29T03:39:15.147Z,12.17
2018-06-29T03:41:43.286Z,11.90
2018-06-29T03:44:11.397Z,11.80
2018-06-29T03:46:39.526Z,12.30
2018-06-29T03:49:07.639Z,12.90
2018-06-29T03:51:35.754Z,13.07
2018-06-29T03:54:03.877Z,12.27
2018-06-29T03:56:31.999Z,11.80
2018-06-29T03:59:00.188Z,11.87
2018-06-29T04:01:28.332Z,11.40
2018-06-29T04:03:56.471Z,11.73
2018-06-29T04:06:24.592Z,11.77
2018-06-29T04:08:52.719Z,11.90
2018-06-29T04:11:20.835Z,11.57
2018-06-29T04:13:48.976Z,12.33
2018-06-29T04:16:17.100Z,12.97
2018-06-29T04:18:45.235Z,13.43
2018-06-29T04:21:13.362Z,13.47
2018-06-29T04:23:41.489Z,13.90
2018-06-29T04:26:09.607Z,12.40
2018-06-29T04:28:37.726Z,12.80
2018-06-29T04:31:05.944Z,13.27
2018-06-29T04:33:34.079Z,12.53
2018-06-29T04:36:02.278Z,12.60
2018-06-29T04:38:30.451Z,12.30
2018-06-29T04:40:58.580Z,12.63
2018-06-29T04:43:26.736Z,12.13
2018-06-29T04:45:54.847Z,12.63
2018-06-29T04:48:22.969Z,12.17
2018-06-29T04:50:51.090Z,12.27
2018-06-29T04:53:19.257Z,13.47
2018-06-29T04:55:47.361Z,13.20
2018-06-29T04:58:15.496Z,13.00
2018-06-29T05:00:43.779Z,13.27
2018-06-29T05:03:11.907Z,13.00
2018-06-29T05:05:40.048Z,12.90
2018-06-29T05:08:08.206Z,11.93
2018-06-29T05:10:36.313Z,11.80
2018-06-29T05:13:04.220Z,11.90
2018-06-29T05:15:32.492Z,12.40
2018-06-29T05:18:00.766Z,12.40
2018-06-29T05:20:28.935Z,12.53
2018-06-29T05:22:57.088Z,12.43
2018-06-29T05:25:25.208Z,12.53
2018-06-29T05:27:53.353Z,12.30
2018-06-29T05:30:21.587Z,12.90
2018-06-29T05:32:49.711Z,12.63
2018-06-29T05:35:17.888Z,13.20
2018-06-29T05:37:46.024Z,12.80
2018-06-29T05:40:14.180Z,14.13
2018-06-29T05:42:42.298Z,13.90
2018-06-29T05:45:10.294Z,13.13
2018-06-29T05:47:38.431Z,12.27
2018-06-29T05:50:06.623Z,13.50
2018-06-29T05:52:34.934Z,11.07
2018-06-29T05:55:03.059Z,12.60
2018-06-29T05:57:31.219Z,12.73
2018-06-29T05:59:59.333Z,12.80
2018-06-29T06:02:27.446Z,12.33
2018-06-29T06:04:55.611Z,13.27
2018-06-29T06:07:23.984Z,12.60
2018-06-29T06:09:52.147Z,12.23
2018-06-29T06:12:20.297Z,12.67
2018-06-29T06:14:48.434Z,12.87
2018-06-29T06:17:16.556Z,11.30
2018-06-29T06:19:56.188Z,11.20
2018-06-29T06:22:24.444Z,11.13
2018-06-29T06:24:52.836Z,10.60
2018-06-29T06:27:21.076Z,11.47
2018-06-29T06:29:49.234Z,11.80
2018-06-29T06:32:17.414Z,11.00
2018-06-29T06:34:45.552Z,11.63
2018-06-29T06:37:13.681Z,11.40
2018-06-29T06:39:41.811Z,12.60
2018-06-29T06:42:09.959Z,11.83
2018-06-29T06:44:38.088Z,11.20
2018-06-29T06:47:06.305Z,12.10
2018-06-29T06:49:34.663Z,11.20
2018-06-29T06:52:03.433Z,10.50
2018-06-29T06:54:31.563Z,10.80
2018-06-29T06:56:59.722Z,10.93
2018-06-29T06:59:27.910Z,9.63
2018-06-29T07:01:56.021Z,11.20
2018-06-29T07:04:24.139Z,10.27
2018-06-29T07:06:52.262Z,9.93
2018-06-29T07:09:20.377Z,10.33
2018-06-29T07:11:48.495Z,11.47
2018-06-29T07:14:16.658Z,10.80
2018-06-29T07:16:44.770Z,11.03
2018-06-29T07:19:12.982Z,9.27
2018-06-29T07:21:41.099Z,9.90
2018-06-29T07:24:09.231Z,10.70
2018-06-29T07:26:37.823Z,11.33
2018-06-29T07:29:06.019Z,9.60
2018-06-29T07:31:34.196Z,10.90
2018-06-29T07:34:02.371Z,9.50
2018-06-29T07:36:30.526Z,9.77
2018-06-29T07:38:58.677Z,8.30
2018-06-29T07:41:26.829Z,9.23
2018-06-29T07:43:54.944Z,8.70
2018-06-29T07:46:23.119Z,9.00
2018-06-29T07:48:51.243Z,10.70
2018-06-29T07:51:19.475Z,9.87
2018-06-29T07:53:47.671Z,10.07
2018-06-29T07:56:15.873Z,10.23
2018-06-29T07:58:44.091Z,10.70
2018-06-29T08:01:12.179Z,9.70
2018-06-29T08:05:09.798Z,9.57
2018-06-29T08:07:38.001Z,8.60
2018-06-29T08:10:06.280Z,9.10
2018-06-29T08:12:34.455Z,8.80
2018-06-29T08:15:02.896Z,8.90
2018-06-29T08:17:31.107Z,9.40
2018-06-29T08:19:59.523Z,9.60
2018-06-29T08:22:27.665Z,9.30
2018-06-29T08:25:07.617Z,9.63
2018-06-29T08:27:35.747Z,8.67
2018-06-29T08:30:04.546Z,9.60
2018-06-29T08:32:32.663Z,10.20
2018-06-29T08:35:00.787Z,10.10
2018-06-29T08:37:28.907Z,9.83
2018-06-29T08:39:57.079Z,11.13
2018-06-29T08:42:25.231Z,8.80
2018-06-29T08:44:53.407Z,9.93
2018-06-29T08:47:21.631Z,9.80
2018-06-29T08:49:49.746Z,11.00
2018-06-29T08:52:18.201Z,10.57
2018-06-29T08:54:46.304Z,9.83
2018-06-29T08:57:14.490Z,9.40
2018-06-29T08:59:42.594Z,9.60
2018-06-29T09:02:10.748Z,9.77
2018-06-29T09:04:38.857Z,10.63
2018-06-29T09:07:07.280Z,11.10
2018-06-29T09:09:35.408Z,10.53
2018-06-29T09:12:03.544Z,10.40
2018-06-29T09:14:31.719Z,11.60
2018-06-29T09:16:59.665Z,11.10
2018-06-29T09:19:27.788Z,9.73
2018-06-29T09:21:55.915Z,10.90
2018-06-29T09:24:24.057Z,11.30
2018-06-29T09:26:52.265Z,11.27
2018-06-29T09:29:20.425Z,9.27
2018-06-29T09:31:48.560Z,9.97
2018-06-29T09:34:16.668Z,9.97
2018-06-29T09:36:44.923Z,10.87
2018-06-29T09:39:13.843Z,10.63
2018-06-29T09:41:44.032Z,10.50
2018-06-29T09:44:12.183Z,10.10
2018-06-29T09:46:40.427Z,10.33
2018-06-29T09:49:08.545Z,10.83
2018-06-29T09:51:36.667Z,11.03
2018-06-29T09:54:04.875Z,10.80
2018-06-29T09:56:32.916Z,11.40
2018-06-29T09:59:01.053Z,11.07
2018-06-29T10:01:29.342Z,10.93
2018-06-29T10:03:57.327Z,11.73
2018-06-29T10:06:25.467Z,10.90
2018-06-29T10:08:53.590Z,11.03
2018-06-29T10:11:21.495Z,10.53
2018-06-29T10:13:49.748Z,10.80
2018-06-29T10:16:17.907Z,10.57
2018-06-29T10:18:46.067Z,10.67
2018-06-29T10:21:20.737Z,10.73
2018-06-29T10:23:49.796Z,10.40
2018-06-29T10:26:17.915Z,11.83
2018-06-29T10:28:46.042Z,11.00
2018-06-29T10:31:14.169Z,10.00
2018-06-29T10:33:42.310Z,9.30
2018-06-29T10:36:10.458Z,9.77
2018-06-29T10:38:38.631Z,10.10
2018-06-29T10:41:06.747Z,9.35
2018-06-29T10:43:35.016Z,9.80
2018-06-29T10:46:03.231Z,8.60
2018-06-29T10:48:31.355Z,9.10
2018-06-29T10:50:59.475Z,10.13
2018-06-29T10:53:27.602Z,9.20
2018-06-29T10:55:55.872Z,9.48
2018-06-29T10:58:24.002Z,10.20
2018-06-29T11:00:52.135Z,10.70
2018-06-29T11:03:20.383Z,10.60
2018-06-29T11:05:48.511Z,9.93
2018-06-29T11:08:16.717Z,10.57
2018-06-29T11:10:44.832Z,9.67
2018-06-29T11:13:12.946Z,8.60
2018-06-29T11:15:41.058Z,7.60
2018-06-29T11:18:09.214Z,9.30
2018-06-29T11:20:37.331Z,9.00
2018-06-29T11:23:05.471Z,9.70
2018-06-29T11:25:33.588Z,8.57
2018-06-29T11:28:01.711Z,9.00
2018-06-29T11:30:29.831Z,8.80
2018-06-29T11:32:57.955Z,8.63
2018-06-29T11:35:26.073Z,9.33
2018-06-29T11:37:54.285Z,10.03
2018-06-29T11:40:22.419Z,9.37
2018-06-29T11:42:51.337Z,8.23
2018-06-29T11:45:19.456Z,8.43
2018-06-29T11:47:47.595Z,8.97
2018-06-29T11:50:15.703Z,8.90
2018-06-29T11:52:43.850Z,8.50
2018-06-29T11:55:11.988Z,8.10
2018-06-29T11:57:40.110Z,8.40
2018-06-29T12:00:08.259Z,8.00
2018-06-29T12:02:36.383Z,7.47
2018-06-29T12:05:04.515Z,8.38
2018-06-29T12:07:32.675Z,8.20
2018-06-29T12:10:00.826Z,8.37
2018-06-29T12:12:28.955Z,8.13
2018-06-29T12:14:57.159Z,7.50
2018-06-29T12:17:25.227Z,8.10
2018-06-29T12:19:53.570Z,7.80
2018-06-29T12:22:21.706Z,8.47
2018-06-29T12:24:49.855Z,7.37
2018-06-29T12:27:19.632Z,7.77
2018-06-29T12:29:47.875Z,7.40
2018-06-29T12:32:16.853Z,7.53
2018-06-29T12:34:52.389Z,8.27
2018-06-29T12:37:22.788Z,7.37
2018-06-29T12:40:01.889Z,7.28
2018-06-29T12:45:25.072Z,8.40
2018-06-29T12:47:55.665Z,7.00
2018-06-29T12:50:36.108Z,7.60
2018-06-29T12:53:24.878Z,7.65
2018-06-29T12:56:10.016Z,8.30
2018-06-29T12:58:45.692Z,7.80
2018-06-29T13:01:26.011Z,8.87
2018-06-29T13:04:05.472Z,7.33
2018-06-29T13:06:39.190Z,7.27
2018-06-29T13:09:21.776Z,7.75
2018-06-29T13:18:28.825Z,8.10
2018-06-29T13:20:56.922Z,8.50
2018-06-29T13:23:25.111Z,9.57
2018-06-29T13:25:53.279Z,8.80
2018-06-29T13:28:21.524Z,7.50
2018-06-29T13:30:49.648Z,8.30
2018-06-29T13:33:17.805Z,7.10
2018-06-29T13:35:46.087Z,7.17
2018-06-29T13:38:14.409Z,7.60
2018-06-29T13:40:42.666Z,7.43
2018-06-29T13:43:10.933Z,7.33
2018-06-29T13:45:39.127Z,7.40
2018-06-29T13:48:07.323Z,6.80
2018-06-29T13:50:35.439Z,7.30
2018-06-29T13:53:04.090Z,6.90
2018-06-29T13:55:32.855Z,6.73
2018-06-29T13:58:01.989Z,7.40
2018-06-29T14:00:30.187Z,6.57
2018-06-29T14:02:58.415Z,6.50
2018-06-29T14:05:27.106Z,7.00
2018-06-29T14:07:55.282Z,6.53
2018-06-29T14:10:23.583Z,5.97
2018-06-29T14:12:51.947Z,6.50
2018-06-29T14:15:20.184Z,5.73
2018-06-29T14:17:48.280Z,5.90
2018-06-29T14:20:16.382Z,6.40
2018-06-29T14:22:44.504Z,6.20
2018-06-29T14:25:12.625Z,6.23
2018-06-29T14:27:40.767Z,5.67
2018-06-29T14:30:09.016Z,6.80
2018-06-29T14:32:37.380Z,6.20
2018-06-29T14:35:06.267Z,6.70
2018-06-29T14:37:34.362Z,7.20
2018-06-29T14:40:02.472Z,6.90
2018-06-29T14:42:30.595Z,7.07
2018-06-29T14:44:58.751Z,7.37
2018-06-29T14:47:26.871Z,6.63
2018-06-29T14:49:54.985Z,6.87
2018-06-29T14:52:23.091Z,6.83
2018-06-29T14:54:51.211Z,8.00
2018-06-29T14:57:19.326Z,6.60
2018-06-29T14:59:47.450Z,8.17
2018-06-29T15:02:15.580Z,7.03
2018-06-29T15:04:43.691Z,7.60
2018-06-29T15:07:11.864Z,6.20
2018-06-29T15:09:40.127Z,8.20
2018-06-29T15:12:08.252Z,7.47
2018-06-29T15:14:36.461Z,8.80
2018-06-29T15:17:05.300Z,7.23
2018-06-29T15:19:33.420Z,6.63
2018-06-29T15:22:01.685Z,7.43
2018-06-29T15:24:29.802Z,7.17
2018-06-29T15:26:57.960Z,7.50
2018-06-29T15:29:26.097Z,7.47
2018-06-29T15:31:54.300Z,7.43
2018-06-29T15:34:22.437Z,7.83
2018-06-29T15:36:50.587Z,7.17
2018-06-29T15:39:18.725Z,7.90
2018-06-29T15:41:46.873Z,8.03
2018-06-29T15:44:15.024Z,8.50
2018-06-29T15:46:43.171Z,6.80
2018-06-29T15:49:11.339Z,7.73
2018-06-29T15:51:40.035Z,7.20
2018-06-29T15:54:08.199Z,8.07
2018-06-29T15:56:36.372Z,7.13
2018-06-29T15:59:04.514Z,7.33
2018-06-29T16:01:32.715Z,7.40
2018-06-29T16:04:01.343Z,8.40
2018-06-29T16:06:29.525Z,7.50
2018-06-29T16:08:57.630Z,7.67
2018-06-29T16:11:25.788Z,7.70
2018-06-29T16:13:53.970Z,8.00
2018-06-29T16:16:22.264Z,7.50
2018-06-29T16:18:50.375Z,8.33
2018-06-29T16:21:18.486Z,7.93
2018-06-29T16:23:46.610Z,7.60
2018-06-29T16:26:14.773Z,7.90
2018-06-29T16:28:42.879Z,8.00
2018-06-29T16:31:11.076Z,7.40
2018-06-29T16:33:39.281Z,7.47
2018-06-29T16:36:07.438Z,7.40
2018-06-29T16:38:35.534Z,7.37
2018-06-29T16:41:03.650Z,7.40
2018-06-29T16:43:31.755Z,7.47
2018-06-29T16:45:59.876Z,7.67
2018-06-29T16:48:27.993Z,7.80
2018-06-29T16:50:56.106Z,7.53
2018-06-29T16:53:24.212Z,7.77
2018-06-29T16:55:52.384Z,7.37
2018-06-29T16:58:20.667Z,7.90
2018-06-29T17:00:48.775Z,7.77
2018-06-29T17:03:16.944Z,6.87
2018-06-29T17:05:45.138Z,7.27
2018-06-29T17:08:13.211Z,7.13
2018-06-29T17:10:41.355Z,7.70
2018-06-29T17:13:09.840Z,6.80
2018-06-29T17:15:37.935Z,6.70
2018-06-29T17:18:06.226Z,7.27
2018-06-29T17:20:34.370Z,7.47
2018-06-29T17:23:02.611Z,6.97
2018-06-29T17:25:31.010Z,7.50
2018-06-29T17:27:59.266Z,6.67
2018-06-29T17:30:27.420Z,6.80
2018-06-29T17:32:55.596Z,6.50
2018-06-29T17:35:23.763Z,6.33
2018-06-29T17:37:51.717Z,6.70
2018-06-29T17:40:19.896Z,6.60
2018-06-29T17:42:48.055Z,7.00
2018-06-29T17:45:16.175Z,7.20
2018-06-29T17:47:44.324Z,6.90
2018-06-29T17:50:12.780Z,7.70
2018-06-29T17:52:40.965Z,7.00
2018-06-29T17:55:09.282Z,6.57
2018-06-29T17:57:37.393Z,6.90
2018-06-29T18:00:05.782Z,7.30
2018-06-29T18:02:33.918Z,6.87
2018-06-29T18:05:02.045Z,8.10
2018-06-29T18:07:30.190Z,7.47
2018-06-29T18:09:58.321Z,7.53
2018-06-29T18:12:26.439Z,7.20
2018-06-29T18:14:54.636Z,6.93
2018-06-29T18:17:23.960Z,7.80
2018-06-29T18:19:52.288Z,6.77
2018-06-29T18:22:20.563Z,7.53
2018-06-29T18:24:48.679Z,7.20
2018-06-29T18:27:16.897Z,7.03
2018-06-29T18:29:45.109Z,7.47
2018-06-29T18:32:13.240Z,7.40
2018-06-29T18:34:41.422Z,8.03
2018-06-29T18:37:09.663Z,6.77
2018-06-29T18:39:37.598Z,6.90
2018-06-29T18:42:05.901Z,7.00
2018-06-29T18:44:34.000Z,6.33
2018-06-29T18:47:02.099Z,6.80
2018-06-29T18:49:30.275Z,7.53
2018-06-29T18:51:58.370Z,7.30
2018-06-29T18:54:26.477Z,7.00
2018-06-29T18:56:54.618Z,6.73
2018-06-29T18:59:22.795Z,7.40
2018-06-29T19:01:50.912Z,6.83
2018-06-29T19:04:19.111Z,7.10
2018-06-29T19:06:47.212Z,7.27
2018-06-29T19:09:15.467Z,7.57
2018-06-29T19:11:43.943Z,7.67
2018-06-29T19:14:12.089Z,6.43
2018-06-29T19:16:40.227Z,7.30
2018-06-29T19:19:08.342Z,7.37
2018-06-29T19:21:36.434Z,7.73
2018-06-29T19:24:04.707Z,7.67
2018-06-29T19:26:32.811Z,7.17
2018-06-29T19:29:01.001Z,7.47
2018-06-29T19:31:29.100Z,6.93
2018-06-29T19:33:57.204Z,8.03
2018-06-29T19:36:25.313Z,7.60
2018-06-29T19:38:53.540Z,7.90
2018-06-29T19:41:21.635Z,7.63
2018-06-29T19:43:49.743Z,8.33
2018-06-29T19:46:17.876Z,8.77
2018-06-29T19:48:46.228Z,9.17
2018-06-29T19:51:14.326Z,8.83
2018-06-29T19:53:42.503Z,9.40
2018-06-29T19:56:10.611Z,9.87
2018-06-29T19:58:39.150Z,9.00
2018-06-29T20:01:07.256Z,9.13
2018-06-29T20:03:35.402Z,9.27
2018-06-29T20:06:03.539Z,10.00
2018-06-29T20:08:31.779Z,10.27
2018-06-29T20:10:59.970Z,11.40
2018-06-29T20:13:28.078Z,10.80
2018-06-29T20:15:56.191Z,11.53
2018-06-29T20:18:24.434Z,11.10
2018-06-29T20:20:52.600Z,11.90
2018-06-29T20:23:20.795Z,11.20
2018-06-29T20:25:48.935Z,10.70
2018-06-29T20:28:17.183Z,11.77
2018-06-29T20:30:45.313Z,11.57
2018-06-29T20:33:13.699Z,11.80
2018-06-29T20:35:41.519Z,11.70
2018-06-29T20:38:09.673Z,11.77
2018-06-29T20:40:37.737Z,12.23
2018-06-29T20:43:06.105Z,12.00
2018-06-29T20:45:34.360Z,12.33
2018-06-29T20:48:02.570Z,11.70
2018-06-29T20:50:30.744Z,10.50
2018-06-29T20:52:58.859Z,10.27
2018-06-29T20:55:26.979Z,10.30
2018-06-29T20:57:55.094Z,10.60
2018-06-29T21:00:23.200Z,10.57
2018-06-29T21:02:51.327Z,10.53
2018-06-29T21:05:19.217Z,10.30
2018-06-29T21:07:47.423Z,10.50
2018-06-29T21:10:15.554Z,11.10
2018-06-29T21:12:43.654Z,11.07
2018-06-29T21:15:11.890Z,9.93
2018-06-29T21:17:39.998Z,10.80
2018-06-29T21:20:08.135Z,10.90
2018-06-29T21:22:36.277Z,11.60
2018-06-29T21:25:04.408Z,11.40
2018-06-29T21:27:32.523Z,11.57
2018-06-29T21:30:00.728Z,11.50
2018-06-29T21:32:29.030Z,11.90
2018-06-29T21:34:57.267Z,11.47
2018-06-29T21:37:25.493Z,11.80
2018-06-29T21:39:53.775Z,12.20
2018-06-29T21:42:21.891Z,13.00
2018-06-29T21:44:50.075Z,12.07
2018-06-29T21:47:18.262Z,12.00
2018-06-29T21:49:46.478Z,11.60
2018-06-29T21:52:14.670Z,11.50
2018-06-29T21:54:42.786Z,11.00
2018-06-29T21:57:10.931Z,11.47
2018-06-29T21:59:39.781Z,11.10
2018-06-29T22:02:07.963Z,11.17
2018-06-29T22:04:36.112Z,11.03
2018-06-29T22:07:04.391Z,11.20
2018-06-29T22:09:33.690Z,11.97
2018-06-29T22:12:01.803Z,11.93
2018-06-29T22:14:29.907Z,11.30
2018-06-29T22:16:58.027Z,10.87
2018-06-29T22:19:26.276Z,11.27
2018-06-29T22:21:54.542Z,11.43
2018-06-29T22:24:22.667Z,12.37
2018-06-29T22:26:50.787Z,12.67
2018-06-29T22:29:18.898Z,11.03
2018-06-29T22:31:47.044Z,11.20
2018-06-29T22:34:15.192Z,11.30
2018-06-29T22:36:43.361Z,10.70
2018-06-29T22:39:12.342Z,11.23
2018-06-29T22:41:41.331Z,11.50
2018-06-29T22:44:09.506Z,12.30
2018-06-29T22:46:37.634Z,12.73
2018-06-29T22:49:05.755Z,11.90
2018-06-29T22:51:33.874Z,11.27
2018-06-29T22:54:02.085Z,13.00
2018-06-29T22:56:30.211Z,11.93
2018-06-29T22:58:58.325Z,12.33
2018-06-29T23:01:26.440Z,11.70
2018-06-29T23:03:55.879Z,11.57
2018-06-29T23:06:25.123Z,11.90
2018-06-29T23:08:53.241Z,13.33
2018-06-29T23:11:21.367Z,12.73
2018-06-29T23:13:49.251Z,12.40
2018-06-29T23:16:17.697Z,13.87
2018-06-29T23:18:45.806Z,12.53
2018-06-29T23:21:13.951Z,12.67
2018-06-29T23:23:42.722Z,13.03
2018-06-29T23:26:10.843Z,13.17
2018-06-29T23:28:39.153Z,13.70
2018-06-29T23:31:07.210Z,13.33
2018-06-29T23:33:35.316Z,12.77
2018-06-29T23:36:03.455Z,14.10
2018-06-29T23:38:31.554Z,13.47
2018-06-29T23:40:59.843Z,12.70
2018-06-29T23:43:27.962Z,13.03
2018-06-29T23:45:56.067Z,12.97
2018-06-29T23:48:24.192Z,13.10
2018-06-29T23:50:52.304Z,13.07
2018-06-29T23:53:20.444Z,13.90
2018-06-29T23:55:48.538Z,13.30
2018-06-29T23:58:16.642Z,13.87
